Time;durP1;ratioP1;P1;durP2;ratioP2;P2;SDS_P1;SDS_P2;PMS_P1;PMS_P2;Temp;Humidity;BMP_temperature;BMP_pressure;BME280_temperature;BME280_humidity;BME280_pressure;Samples;Min_cycle;Max_cycle;Signal;HPM_P1;HPM_P2
2022/03/09 00:02:16;;;;;;;;;;;5.10;54.30;;;;;;5073159;28;20024;-84
2022/03/09 00:04:42;;;;;;;22.67;9.77;;;5.10;54.20;;;;;;5072339;28;19999;-83
2022/03/09 00:07:07;;;;;;;29.27;12.07;;;5.10;53.90;;;;;;5072873;28;20111;-83
2022/03/09 00:09:34;;;;;;;26.77;12.52;;;5.10;54.10;;;;;;5072982;28;20074;-83
2022/03/09 00:12:00;;;;;;;31.87;14.23;;;5.10;54.20;;;;;;5072907;28;20426;-84
2022/03/09 00:14:25;;;;;;;33.90;15.15;;;5.00;54.30;;;;;;5072908;28;20127;-83
2022/03/09 00:16:51;;;;;;;32.88;15.88;;;5.00;54.40;;;;;;5072296;28;20408;-82
2022/03/09 00:19:17;;;;;;;41.85;15.98;;;4.90;54.50;;;;;;5072260;28;20020;-83
2022/03/09 00:21:42;;;;;;;43.25;18.83;;;4.90;54.70;;;;;;5072624;28;20013;-83
2022/03/09 00:24:08;;;;;;;42.97;19.75;;;4.80;54.80;;;;;;5072658;28;20036;-83
2022/03/09 00:26:34;;;;;;;56.40;22.67;;;4.80;54.90;;;;;;5072721;28;20020;-84
2022/03/09 00:28:59;;;;;;;48.78;20.73;;;4.80;54.90;;;;;;5072407;28;20108;-84
2022/03/09 00:31:25;;;;;;;57.40;22.70;;;4.80;55.10;;;;;;5072357;28;20115;-84
2022/03/09 00:33:50;;;;;;;53.20;24.05;;;4.70;55.10;;;;;;5083054;28;20162;-83
2022/03/09 00:36:16;;;;;;;54.83;24.38;;;4.70;55.20;;;;;;5071630;28;20032;-83
2022/03/09 00:38:41;;;;;;;61.45;26.60;;;4.70;55.30;;;;;;5072381;28;20081;-84
2022/03/09 00:41:07;;;;;;;62.85;27.85;;;4.60;55.40;;;;;;5072155;28;20032;-83
2022/03/09 00:43:33;;;;;;;63.05;27.15;;;4.60;55.50;;;;;;5072252;28;20094;-84
2022/03/09 00:45:58;;;;;;;60.00;28.55;;;4.50;55.60;;;;;;5074599;28;20027;-84
2022/03/09 00:48:24;;;;;;;69.82;29.05;;;4.50;55.70;;;;;;5081829;28;20444;-83
2022/03/09 00:50:49;;;;;;;;;;;4.40;55.80;;;;;;5072664;28;20473;-83
2022/03/09 00:53:15;;;;;;;68.13;29.03;;;4.30;55.90;;;;;;5072496;28;19940;-83
2022/03/09 00:55:40;;;;;;;;;;;4.40;55.60;;;;;;5072593;28;20031;-84
2022/03/09 00:58:06;;;;;;;68.23;28.37;;;4.30;55.80;;;;;;5072810;28;19918;-84
2022/03/09 01:00:32;;;;;;;62.72;28.05;;;4.30;55.60;;;;;;5072435;28;20028;-83
2022/03/09 01:02:57;;;;;;;73.00;32.05;;;4.20;55.90;;;;;;5072179;28;20381;-83
2022/03/09 01:05:23;;;;;;;74.18;30.77;;;4.10;56.10;;;;;;5089227;28;20050;-83
2022/03/09 01:07:48;;;;;;;79.80;32.72;;;4.10;56.30;;;;;;5071913;28;20017;-83
2022/03/09 01:10:14;;;;;;;81.40;32.75;;;4.10;56.50;;;;;;5072341;28;20024;-83
2022/03/09 01:12:40;;;;;;;74.25;33.17;;;4.00;56.60;;;;;;5072163;28;20031;-84
2022/03/09 01:15:06;;;;;;;76.55;32.90;;;4.10;56.70;;;;;;5072331;28;20037;-83
2022/03/09 01:17:32;;;;;;;77.73;34.13;;;4.00;56.80;;;;;;5072105;28;20081;-83
2022/03/09 01:19:58;;;;;;;72.90;33.80;;;4.00;57.00;;;;;;5075710;28;20477;-84
2022/03/09 01:22:23;;;;;;;86.15;35.22;;;4.00;57.00;;;;;;5072170;28;20052;-84
2022/03/09 01:24:49;;;;;;;78.18;34.65;;;3.90;57.10;;;;;;5071801;28;20490;-84
2022/03/09 01:27:15;;;;;;;80.85;35.08;;;3.90;57.10;;;;;;5072016;28;20021;-84
2022/03/09 01:29:41;;;;;;;87.53;37.15;;;3.90;57.20;;;;;;5072260;28;20027;-84
2022/03/09 01:32:07;;;;;;;82.25;35.05;;;3.90;57.20;;;;;;5071680;28;20024;-84
2022/03/09 01:34:32;;;;;;;80.13;35.03;;;3.90;57.30;;;;;;5072181;28;20028;-84
2022/03/09 01:36:58;;;;;;;92.85;35.67;;;3.90;57.40;;;;;;5071876;28;20043;-84
2022/03/09 01:39:24;;;;;;;83.60;35.38;;;3.90;57.40;;;;;;5071499;28;20032;-84
2022/03/09 01:41:50;;;;;;;92.30;36.42;;;3.90;57.40;;;;;;5071667;28;20025;-84
2022/03/09 01:44:20;;;;;;;;;;;3.90;57.40;;;;;;5072851;28;20020;-84
2022/03/09 01:46:51;;;;;;;82.47;35.50;;;3.90;57.40;;;;;;5075981;28;19905;-84
2022/03/09 01:49:19;;;;;;;83.07;35.20;;;3.90;57.10;;;;;;5076889;28;20035;-84
2022/03/09 01:51:47;;;;;;;95.00;37.37;;;3.90;57.30;;;;;;5075311;28;20025;-85
2022/03/09 01:54:13;;;;;;;82.20;34.57;;;3.90;57.60;;;;;;5075360;28;20021;-84
2022/03/09 01:56:39;;;;;;;79.57;34.73;;;3.90;57.60;;;;;;5076590;28;20032;-85
2022/03/09 01:59:06;;;;;;;85.70;36.97;;;3.90;57.70;;;;;;5075304;28;20087;-84
2022/03/09 02:01:32;;;;;;;87.43;34.73;;;3.90;57.80;;;;;;5091653;28;20073;-85
2022/03/09 02:03:59;;;;;;;82.47;34.58;;;3.90;57.90;;;;;;5079926;28;20032;-85
2022/03/09 02:06:25;;;;;;;84.73;36.00;;;3.90;57.90;;;;;;5075095;28;20024;-84
2022/03/09 02:11:36;;;;;;;88.10;35.53;;;4.00;58.00;;;;;;5069212;28;20079;-84
2022/03/09 02:14:02;;;;;;;84.40;35.33;;;3.90;57.90;;;;;;5075122;28;20388;-83
2022/03/09 02:16:28;;;;;;;79.43;33.60;;;4.00;58.00;;;;;;5074773;28;20035;-84
2022/03/09 02:18:53;;;;;;;80.35;34.67;;;3.90;58.00;;;;;;5075136;28;20122;-83
2022/03/09 02:21:20;;;;;;;;;;;3.90;58.00;;;;;;5074856;28;20401;-84
2022/03/09 02:23:46;;;;;;;83.87;33.37;;;3.90;58.00;;;;;;5074705;28;20391;-84
2022/03/09 02:26:12;;;;;;;79.17;34.67;;;4.00;57.70;;;;;;5076234;28;20407;-84
2022/03/09 02:28:38;;;;;;;;;;;3.90;57.90;;;;;;5075320;28;20020;-84
2022/03/09 02:31:04;;;;;;;87.37;34.33;;;3.90;58.00;;;;;;5091523;28;19915;-84
2022/03/09 02:33:30;;;;;;;83.35;34.60;;;3.90;57.70;;;;;;5074619;28;20033;-83
2022/03/09 02:35:55;;;;;;;88.70;36.25;;;3.90;58.00;;;;;;5074750;28;20032;-84
2022/03/09 02:38:21;;;;;;;89.70;36.40;;;3.80;58.20;;;;;;5073986;28;20020;-83
2022/03/09 02:40:46;;;;;;;83.85;35.70;;;3.90;58.30;;;;;;5074168;28;20036;-85
2022/03/09 02:43:12;;;;;;;97.55;39.85;;;3.90;58.40;;;;;;5075550;28;20028;-83
2022/03/09 02:45:38;;;;;;;88.57;36.95;;;3.80;58.50;;;;;;5074302;28;20111;-83
2022/03/09 02:48:03;;;;;;;86.45;36.72;;;3.80;58.50;;;;;;5074180;28;20047;-83
2022/03/09 02:50:29;;;;;;;100.15;37.42;;;3.80;58.60;;;;;;5074199;28;20043;-84
2022/03/09 02:52:55;;;;;;;97.97;38.80;;;3.80;58.60;;;;;;5073796;28;20088;-83
2022/03/09 02:55:20;;;;;;;74.90;32.70;;;3.80;58.70;;;;;;5073945;28;20032;-83
2022/03/09 02:57:46;;;;;;;74.80;33.20;;;3.80;58.80;;;;;;5072993;28;20031;-84
2022/03/09 03:00:12;;;;;;;71.38;31.38;;;3.80;58.80;;;;;;5073836;28;20082;-83
2022/03/09 03:02:38;;;;;;;;;;;3.70;58.90;;;;;;5074425;28;20384;-83
2022/03/09 03:05:07;;;;;;;66.77;27.23;;;3.70;58.90;;;;;;5073891;28;19913;-83
2022/03/09 03:07:33;;;;;;;66.23;28.00;;;3.70;58.70;;;;;;5073799;28;20020;-84
2022/03/09 03:09:58;;;;;;;75.38;28.23;;;3.60;58.80;;;;;;5073807;28;20563;-84
2022/03/09 03:12:24;;;;;;;;;;;3.60;59.00;;;;;;5074138;28;20024;-83
2022/03/09 03:14:50;;;;;;;71.40;29.70;;;3.50;59.00;;;;;;5073710;28;19999;-84
2022/03/09 03:17:15;;;;;;;71.22;31.40;;;3.50;58.80;;;;;;5073638;28;20040;-84
2022/03/09 03:19:41;;;;;;;;;;;3.50;58.90;;;;;;5075572;28;20040;-84
2022/03/09 03:22:06;;;;;;;72.77;29.73;;;3.50;59.00;;;;;;5073193;28;19992;-84
2022/03/09 03:24:32;;;;;;;76.00;31.17;;;3.50;58.80;;;;;;5073088;28;20351;-83
2022/03/09 03:26:58;;;;;;;84.35;31.35;;;3.50;59.00;;;;;;5073436;28;20054;-83
2022/03/09 03:29:23;;;;;;;75.10;31.67;;;3.50;59.10;;;;;;5073688;28;20025;-82
2022/03/09 03:31:49;;;;;;;74.32;30.00;;;3.50;59.10;;;;;;5073668;28;20519;-83
2022/03/09 03:34:14;;;;;;;76.55;30.65;;;3.50;59.20;;;;;;5073702;28;20021;-85
2022/03/09 03:36:40;;;;;;;79.60;33.15;;;3.60;59.20;;;;;;5073504;28;20025;-85
2022/03/09 03:39:06;;;;;;;69.45;23.45;;;3.50;59.30;;;;;;5074613;28;20025;-85
2022/03/09 03:41:31;;;;;;;;;;;3.50;59.50;;;;;;5073285;28;20028;-85
2022/03/09 03:43:56;;;;;;;73.33;30.43;;;3.50;59.50;;;;;;5073234;28;19908;-84
2022/03/09 03:46:22;;;;;;;81.60;33.00;;;3.40;59.50;;;;;;5072992;28;20132;-85
2022/03/09 03:48:48;;;;;;;77.07;32.20;;;3.40;59.90;;;;;;5072717;28;20381;-84
2022/03/09 03:51:13;;;;;;;78.90;29.50;;;3.30;60.00;;;;;;5072948;28;20070;-83
2022/03/09 03:53:39;;;;;;;99.85;36.10;;;3.30;60.20;;;;;;5072620;28;20029;-84
2022/03/09 03:56:05;;;;;;;85.70;33.88;;;3.30;60.20;;;;;;5072712;28;20051;-82
2022/03/09 03:58:31;;;;;;;89.70;36.70;;;3.20;60.30;;;;;;5072538;28;20093;-84
2022/03/09 04:00:59;;;;;;;91.03;35.97;;;3.20;60.30;;;;;;5072591;28;20028;-84
2022/03/09 04:03:25;;;;;;;86.07;35.73;;;3.20;60.50;;;;;;5073339;28;20036;-84
2022/03/09 04:05:50;;;;;;;94.35;35.85;;;3.30;60.50;;;;;;5073140;28;20017;-85
2022/03/09 04:08:16;;;;;;;87.13;33.10;;;3.30;60.60;;;;;;5073019;28;20013;-84
2022/03/09 04:10:42;;;;;;;95.53;39.28;;;3.20;60.60;;;;;;5072696;28;20032;-84
2022/03/09 04:13:07;;;;;;;98.43;38.08;;;3.30;60.50;;;;;;5072149;28;20036;-83
2022/03/09 04:15:33;;;;;;;88.57;37.03;;;3.30;60.50;;;;;;5072561;28;20040;-85
2022/03/09 04:17:59;;;;;;;93.07;34.97;;;3.30;60.60;;;;;;5072304;28;20047;-84
2022/03/09 04:20:25;;;;;;;88.00;36.33;;;3.30;60.60;;;;;;5072619;28;20071;-84
2022/03/09 04:22:51;;;;;;;85.95;36.15;;;3.30;60.60;;;;;;5073905;28;20051;-84
2022/03/09 04:25:16;;;;;;;102.32;37.70;;;3.30;60.60;;;;;;5072535;28;20028;-83
2022/03/09 04:27:42;;;;;;;96.57;36.42;;;3.40;60.60;;;;;;5072278;28;20032;-83
2022/03/09 04:30:09;;;;;;;85.40;36.33;;;3.30;60.60;;;;;;5071764;28;20025;-84
2022/03/09 04:32:35;;;;;;;90.03;37.30;;;3.40;60.60;;;;;;5073780;28;20470;-83
2022/03/09 04:35:02;;;;;;;91.00;38.05;;;3.40;60.70;;;;;;5072566;28;20066;-83
2022/03/09 04:37:30;;;;;;;141.73;51.33;;;3.40;60.70;;;;;;5072048;28;20025;-84
2022/03/09 04:40:01;;;;;;;262.60;94.80;;;3.40;60.80;;;;;;5073127;28;20040;-84
2022/03/09 04:42:27;;;;;;;284.93;100.90;;;3.40;60.80;;;;;;5073006;28;20032;-85
2022/03/09 04:44:53;;;;;;;322.60;119.13;;;3.40;60.80;;;;;;5072107;28;20041;-84
2022/03/09 04:47:20;;;;;;;252.93;99.30;;;3.40;60.90;;;;;;5073473;28;20029;-83
2022/03/09 04:49:45;;;;;;;146.20;57.60;;;3.40;60.90;;;;;;5073442;28;20025;-83
2022/03/09 04:52:11;;;;;;;100.53;43.50;;;3.40;60.90;;;;;;5072038;28;20027;-84
2022/03/09 04:54:38;;;;;;;91.20;38.55;;;3.40;60.90;;;;;;5072057;28;20036;-84
2022/03/09 04:57:03;;;;;;;96.30;40.50;;;3.40;60.90;;;;;;5072024;28;20127;-83
2022/03/09 04:59:29;;;;;;;95.85;36.60;;;3.50;60.90;;;;;;5071633;28;20067;-83
2022/03/09 05:01:55;;;;;;;92.68;38.05;;;3.40;60.90;;;;;;5072194;28;20032;-83
2022/03/09 05:04:20;;;;;;;;;;;3.40;60.90;;;;;;5071771;28;20028;-84
2022/03/09 05:06:46;;;;;;;95.23;37.80;;;3.40;60.90;;;;;;5088729;28;20376;-83
2022/03/09 05:09:12;;;;;;;101.28;42.00;;;3.50;60.60;;;;;;5088616;28;20393;-84
2022/03/09 05:11:37;;;;;;;96.90;44.63;;;3.40;60.70;;;;;;5071928;28;20032;-83
2022/03/09 05:14:03;;;;;;;96.35;39.03;;;3.50;60.80;;;;;;5073012;28;20031;-83
2022/03/09 05:16:29;;;;;;;97.22;40.28;;;3.50;60.80;;;;;;5071618;28;20108;-84
2022/03/09 05:18:54;;;;;;;91.82;35.63;;;3.50;60.90;;;;;;5088901;28;20037;-83
2022/03/09 05:21:20;;;;;;;87.25;35.45;;;3.50;60.90;;;;;;5074404;28;20032;-82
2022/03/09 05:23:46;;;;;;;91.28;35.63;;;3.50;60.80;;;;;;5075669;28;20024;-84
2022/03/09 05:26:11;;;;;;;91.18;35.10;;;3.60;60.80;;;;;;5075978;28;20432;-84
2022/03/09 05:28:37;;;;;;;86.97;34.85;;;3.60;60.80;;;;;;5075314;28;20021;-84
2022/03/09 05:31:02;;;;;;;89.07;33.88;;;3.60;60.80;;;;;;5075288;28;20052;-84
2022/03/09 05:33:28;;;;;;;;;;;3.60;60.70;;;;;;5075879;28;20489;-84
2022/03/09 05:35:54;;;;;;;88.23;32.27;;;3.70;60.70;;;;;;5075000;28;19904;-83
2022/03/09 05:38:19;;;;;;;54.40;25.10;;;3.70;60.50;;;;;;5075135;28;20024;-84
2022/03/09 05:40:45;;;;;;;87.60;34.90;;;3.60;60.60;;;;;;5075276;28;20025;-84
2022/03/09 05:43:11;;;;;;;96.00;37.10;;;3.60;60.70;;;;;;5075342;28;20055;-83
2022/03/09 05:45:40;;;;;;;87.95;36.13;;;3.60;60.80;;;;;;5075212;28;20070;-84
2022/03/09 05:48:05;;;;;;;99.47;39.27;;;3.60;60.90;;;;;;5074599;28;20082;-84
2022/03/09 05:50:32;;;;;;;96.82;39.05;;;3.60;60.90;;;;;;5074708;28;20410;-84
2022/03/09 05:52:58;;;;;;;93.53;35.30;;;3.60;60.90;;;;;;5074498;28;20358;-84
2022/03/09 05:55:23;;;;;;;90.55;39.53;;;3.60;61.00;;;;;;5087668;28;20027;-84
2022/03/09 05:57:49;;;;;;;83.50;36.58;;;3.60;60.90;;;;;;5074630;28;20115;-84
2022/03/09 06:00:15;;;;;;;96.85;39.83;;;3.70;61.00;;;;;;5074684;28;20115;-84
2022/03/09 06:02:41;;;;;;;101.20;40.27;;;3.60;61.10;;;;;;5076924;28;20028;-84
2022/03/09 06:05:07;;;;;;;105.65;39.72;;;3.60;61.10;;;;;;5074760;28;20033;-85
2022/03/09 06:07:33;;;;;;;102.37;41.10;;;3.60;61.20;;;;;;5074932;28;20070;-84
2022/03/09 06:09:59;;;;;;;100.90;41.42;;;3.60;61.10;;;;;;5075644;28;20031;-84
2022/03/09 06:12:25;;;;;;;;;;;3.60;61.20;;;;;;5074909;28;20393;-83
2022/03/09 06:14:51;;;;;;;101.43;39.73;;;3.80;61.20;;;;;;5074489;28;20003;-83
2022/03/09 06:17:16;;;;;;;105.97;40.95;;;3.80;60.80;;;;;;5074245;28;20068;-83
2022/03/09 06:19:42;;;;;;;94.32;41.42;;;3.80;60.90;;;;;;5074366;28;20024;-84
2022/03/09 06:22:07;;;;;;;100.63;40.55;;;3.80;61.00;;;;;;5074690;28;20024;-84
2022/03/09 06:24:33;;;;;;;;;;;3.80;61.00;;;;;;5074901;28;20085;-84
2022/03/09 06:26:59;;;;;;;91.73;39.80;;;3.80;61.10;;;;;;5075766;28;19908;-85
2022/03/09 06:29:25;;;;;;;100.47;37.88;;;3.80;60.80;;;;;;5074590;28;20029;-84
2022/03/09 06:31:51;;;;;;;91.10;36.03;;;3.80;60.90;;;;;;5073302;28;20070;-83
2022/03/09 06:34:17;;;;;;;103.35;40.40;;;3.80;61.00;;;;;;5091091;28;20038;-84
2022/03/09 06:36:44;;;;;;;106.22;43.10;;;3.80;61.00;;;;;;5075435;28;20031;-83
2022/03/09 06:39:12;;;;;;;114.60;44.83;;;3.80;61.20;;;;;;5074248;28;20020;-84
2022/03/09 06:41:40;;;;;;;109.33;45.60;;;3.80;61.20;;;;;;5074063;28;20024;-82
2022/03/09 06:44:06;;;;;;;120.93;47.63;;;3.80;61.20;;;;;;5073778;28;20021;-84
2022/03/09 06:46:31;;;;;;;109.38;45.97;;;3.80;61.30;;;;;;5074892;28;20021;-84
2022/03/09 06:48:57;;;;;;;117.13;48.42;;;3.80;61.20;;;;;;5074517;28;20032;-83
2022/03/09 06:51:22;;;;;;;103.47;45.40;;;3.80;61.20;;;;;;5074294;28;20031;-84
2022/03/09 06:53:48;;;;;;;108.35;43.45;;;3.90;61.20;;;;;;5079764;28;20028;-83
2022/03/09 06:56:15;;;;;;;138.13;56.72;;;3.90;61.10;;;;;;5077307;28;20036;-83
2022/03/09 06:58:40;;;;;;;132.20;53.00;;;3.90;61.10;;;;;;5075268;28;20389;-83
2022/03/09 07:01:06;;;;;;;133.88;53.25;;;4.00;61.10;;;;;;5073838;28;20016;-84
2022/03/09 07:03:31;;;;;;;;;;;4.10;61.10;;;;;;5075693;28;20077;-84
2022/03/09 07:05:57;;;;;;;126.60;52.13;;;4.10;61.00;;;;;;5090706;28;19908;-83
2022/03/09 07:08:22;;;;;;;107.50;47.97;;;4.20;60.70;;;;;;5090602;28;20107;-83
2022/03/09 07:10:48;;;;;;;126.43;48.78;;;4.20;60.90;;;;;;5073353;28;20032;-83
2022/03/09 07:13:14;;;;;;;111.40;46.85;;;4.20;60.90;;;;;;5075853;28;20043;-83
2022/03/09 07:15:39;;;;;;;109.40;45.35;;;4.30;60.90;;;;;;5072415;28;20048;-82
2022/03/09 07:18:05;;;;;;;124.88;48.25;;;4.30;60.80;;;;;;5077365;28;20040;-87
2022/03/09 07:20:30;;;;;;;116.72;46.97;;;4.30;60.80;;;;;;5074314;28;20032;-86
2022/03/09 07:22:56;;;;;;;111.70;48.53;;;4.30;60.80;;;;;;5075618;28;20029;-87
2022/03/09 07:25:21;;;;;;;119.13;46.80;;;4.30;60.80;;;;;;5073677;28;20481;-87
2022/03/09 07:27:47;;;;;;;;;;;4.30;60.70;;;;;;5077468;28;20020;-86
2022/03/09 07:30:13;;;;;;;117.80;45.07;;;4.40;60.70;;;;;;5108330;27;19916;-87
2022/03/09 07:32:40;;;;;;;118.33;47.53;;;4.40;60.40;;;;;;5072070;28;20071;-87
2022/03/09 07:35:06;;;;;;;93.73;39.73;;;4.30;60.50;;;;;;5078938;28;20024;-87
2022/03/09 07:37:32;;;;;;;93.30;40.77;;;4.30;60.70;;;;;;5078321;28;20111;-87
2022/03/09 07:39:57;;;;;;;117.18;48.92;;;4.30;60.80;;;;;;5075310;28;20162;-87
2022/03/09 07:42:23;;;;;;;118.07;51.60;;;4.30;60.80;;;;;;5074524;28;20028;-86
2022/03/09 07:44:48;;;;;;;125.80;57.63;;;4.30;60.80;;;;;;5075110;28;20012;-88
2022/03/09 07:47:14;;;;;;;;;;;4.30;60.80;;;;;;5073572;28;20051;-87
2022/03/09 07:49:39;;;;;;;126.70;49.90;;;4.30;60.90;;;;;;5090646;28;19940;-87
2022/03/09 07:52:06;;;;;;;112.88;46.22;;;4.40;60.60;;;;;;5073169;28;20090;-87
2022/03/09 07:54:32;;;;;;;119.13;50.60;;;4.50;60.60;;;;;;5073246;28;20412;-86
2022/03/09 07:56:58;;;;;;;110.35;45.42;;;4.50;60.50;;;;;;5079923;28;20024;-87
2022/03/09 07:59:25;;;;;;;118.00;49.87;;;4.50;60.60;;;;;;5077284;28;20059;-87
2022/03/09 08:01:52;;;;;;;117.47;50.23;;;4.50;60.60;;;;;;5078221;28;21383;-86
2022/03/09 08:04:19;;;;;;;114.67;47.13;;;4.50;60.60;;;;;;5093408;28;20016;-86
2022/03/09 08:06:50;;;;;;;131.00;53.90;;;4.50;60.70;;;;;;5073138;28;20074;-86
2022/03/09 08:09:15;;;;;;;123.07;51.97;;;4.50;60.70;;;;;;5073465;28;20069;-87
2022/03/09 08:11:42;;;;;;;117.53;49.95;;;4.60;60.70;;;;;;5089910;28;20115;-89
2022/03/09 08:14:08;;;;;;;114.93;46.20;;;4.70;60.60;;;;;;5079115;28;20035;-89
2022/03/09 08:16:33;;;;;;;115.25;50.78;;;4.70;60.60;;;;;;5073322;28;20497;-89
2022/03/09 08:18:59;;;;;;;109.65;46.58;;;4.80;60.50;;;;;;5076327;28;20031;-89
2022/03/09 08:21:25;;;;;;;125.15;51.13;;;4.80;60.50;;;;;;5073920;28;20028;-89
2022/03/09 08:23:51;;;;;;;119.00;48.73;;;4.90;60.50;;;;;;5073695;28;20139;-88
2022/03/09 08:26:17;;;;;;;117.63;48.40;;;4.90;60.50;;;;;;5074206;28;20549;-89
2022/03/09 08:28:42;;;;;;;109.65;44.17;;;4.90;60.40;;;;;;5073909;28;20023;-88
2022/03/09 08:31:08;;;;;;;96.88;40.38;;;5.00;60.30;;;;;;5073921;28;20473;-88
2022/03/09 08:33:34;;;;;;;110.35;50.58;;;5.10;60.20;;;;;;5074622;28;20028;-88
2022/03/09 08:36:00;;;;;;;131.75;56.10;;;5.20;60.00;;;;;;5074013;28;20028;-88
2022/03/09 08:38:25;;;;;;;103.40;46.50;;;5.30;60.00;;;;;;5074469;28;20040;-88
2022/03/09 08:40:51;;;;;;;84.40;33.85;;;5.40;59.90;;;;;;5074030;28;20024;-89
2022/03/09 08:43:17;;;;;;;94.63;41.22;;;5.50;59.50;;;;;;5074164;28;20881;-89
2022/03/09 08:45:44;;;;;;;106.20;44.03;;;5.50;59.20;;;;;;5074334;28;20042;-89
2022/03/09 08:48:10;;;;;;;104.07;42.20;;;5.60;59.10;;;;;;5080046;28;20021;-87
2022/03/09 08:50:36;;;;;;;125.88;51.67;;;5.60;59.00;;;;;;5074309;28;20031;-88
2022/03/09 08:53:03;;;;;;;74.70;34.42;;;5.60;59.00;;;;;;5076278;28;20025;-89
2022/03/09 08:55:29;;;;;;;99.80;43.63;;;5.70;58.90;;;;;;5072521;28;20539;-89
2022/03/09 08:57:55;;;;;;;104.72;44.78;;;5.70;58.90;;;;;;5075694;28;20128;-89
2022/03/09 09:00:20;;;;;;;;;;;5.80;58.80;;;;;;5078760;28;20112;-88
2022/03/09 09:02:46;;;;;;;106.60;46.23;;;5.80;58.70;;;;;;5074188;28;19943;-89
2022/03/09 09:05:12;;;;;;;97.53;43.45;;;5.80;58.30;;;;;;5076545;28;20020;-88
2022/03/09 09:07:37;;;;;;;78.85;35.88;;;5.80;58.40;;;;;;5073984;28;20040;-88
2022/03/09 09:10:04;;;;;;;104.63;41.70;;;5.80;58.50;;;;;;5073745;28;20055;-88
2022/03/09 09:12:30;;;;;;;54.40;24.97;;;5.80;58.60;;;;;;5075021;28;20123;-89
2022/03/09 09:14:56;;;;;;;111.28;47.35;;;5.90;58.40;;;;;;5073853;28;20385;-88
2022/03/09 09:17:21;;;;;;;;;;;5.90;58.40;;;;;;5074406;28;20052;-87
2022/03/09 09:19:47;;;;;;;102.90;46.57;;;5.90;58.40;;;;;;5074499;28;19913;-88
2022/03/09 09:22:12;;;;;;;90.03;39.08;;;5.90;58.20;;;;;;5073599;28;20036;-89
2022/03/09 09:24:38;;;;;;;115.97;48.90;;;5.90;58.30;;;;;;5073985;28;20047;-87
2022/03/09 09:27:04;;;;;;;111.63;46.67;;;5.90;58.30;;;;;;5072414;28;20051;-89
2022/03/09 09:29:29;;;;;;;122.53;54.90;;;6.00;58.40;;;;;;5073578;28;20107;-88
2022/03/09 09:31:55;;;;;;;136.20;57.75;;;6.10;58.40;;;;;;5073697;28;20028;-87
2022/03/09 09:34:20;;;;;;;;;;;6.10;58.40;;;;;;5074088;28;20025;-87
2022/03/09 09:36:46;;;;;;;112.57;49.73;;;6.30;58.30;;;;;;5073260;28;19908;-89
2022/03/09 09:39:14;;;;;;;123.13;52.53;;;6.40;58.00;;;;;;5074316;28;20055;-88
2022/03/09 09:41:45;;;;;;;107.73;47.10;;;6.50;57.90;;;;;;5077807;28;20027;-88
2022/03/09 09:44:11;;;;;;;114.87;49.10;;;6.70;57.70;;;;;;5078962;28;20025;-88
2022/03/09 09:46:41;;;;;;;96.53;41.23;;;6.80;57.40;;;;;;5073431;28;20016;-88
2022/03/09 09:49:13;;;;;;;106.50;50.73;;;7.00;57.10;;;;;;5073247;28;20024;-88
2022/03/09 09:51:41;;;;;;;96.60;44.33;;;7.20;56.80;;;;;;5072900;28;20024;-89
2022/03/09 09:54:07;;;;;;;118.93;49.27;;;7.40;56.50;;;;;;5071041;28;20178;-88
2022/03/09 09:56:37;;;;;;;113.17;51.87;;;7.60;56.00;;;;;;5073137;28;20081;-88
2022/03/09 09:59:03;;;;;;;105.57;52.63;;;7.80;55.80;;;;;;5073066;28;20040;-89
2022/03/09 10:01:29;;;;;;;106.70;45.28;;;8.00;55.30;;;;;;5072711;28;20048;-88
2022/03/09 10:03:54;;;;;;;;;;;8.20;54.80;;;;;;5089338;28;20123;-87
2022/03/09 10:06:20;;;;;;;94.47;43.07;;;8.50;54.40;;;;;;5078760;28;19923;-89
2022/03/09 10:09:21;;;;;;;;;;;8.70;53.60;;;;;;5077676;28;20477;-91
2022/03/09 10:11:52;;;;;;;95.50;41.53;;;8.80;53.40;;;;;;5054196;28;20384;-87
2022/03/09 10:14:46;;;;;;;72.33;32.23;;;9.10;52.90;;;;;;5077175;28;20040;-87
2022/03/09 10:17:16;;;;;;;79.45;38.13;;;9.30;52.30;;;;;;5059412;28;20029;-88
2022/03/09 10:19:52;;;;;;;77.93;36.33;;;9.50;51.70;;;;;;5068318;28;20044;-87
2022/03/09 10:22:34;;;;;;;38.67;18.00;;;9.80;51.60;;;;;;5075983;28;20082;-88
2022/03/09 10:25:10;;;;;;;70.35;31.67;;;10.30;50.70;;;;;;5081130;28;20108;-85
2022/03/09 10:27:43;;;;;;;39.58;18.67;;;10.90;49.40;;;;;;5076899;28;20142;-87
2022/03/09 10:30:14;;;;;;;47.88;19.50;;;11.10;48.60;;;;;;5072849;28;20032;-88
2022/03/09 10:32:52;;;;;;;40.03;19.42;;;11.10;48.20;;;;;;5090747;28;20017;-88
2022/03/09 10:35:40;;;;;;;39.42;16.15;;;11.00;47.80;;;;;;5071945;28;20097;-88
2022/03/09 10:38:22;;;;;;;28.88;12.63;;;11.30;47.20;;;;;;5071562;28;20554;-87
2022/03/09 10:40:50;;;;;;;30.77;13.25;;;11.70;46.60;;;;;;5077065;28;20028;-83
2022/03/09 10:43:20;;;;;;;28.17;13.88;;;11.80;45.40;;;;;;5074115;28;20028;-82
2022/03/09 10:46:12;;;;;;;31.67;14.93;;;11.80;45.30;;;;;;5074472;28;20470;-85
2022/03/09 10:49:00;;;;;;;29.80;13.05;;;11.90;44.30;;;;;;5074620;28;20017;-85
2022/03/09 10:51:37;;;;;;;31.67;14.00;;;12.20;43.70;;;;;;5074264;28;20035;-84
2022/03/09 10:54:05;;;;;;;20.10;10.55;;;12.50;43.40;;;;;;5074271;28;20622;-85
2022/03/09 10:56:32;;;;;;;24.25;11.23;;;12.80;42.70;;;;;;5074403;28;20020;-83
2022/03/09 10:59:10;;;;;;;29.77;12.98;;;13.30;42.00;;;;;;5073666;28;20024;-84
2022/03/09 11:01:36;;;;;;;29.13;14.70;;;13.80;41.20;;;;;;5073552;28;20107;-85
2022/03/09 11:04:16;;;;;;;27.67;14.32;;;14.20;40.90;;;;;;5074265;28;20075;-85
2022/03/09 11:06:46;;;;;;;28.38;14.02;;;14.60;39.90;;;;;;5074491;28;20024;-85
2022/03/09 11:09:19;;;;;;;19.20;10.70;;;14.90;39.30;;;;;;5074360;28;20017;-86
2022/03/09 11:11:46;;;;;;;20.88;10.65;;;15.20;39.00;;;;;;5075912;28;20050;-85
2022/03/09 11:14:14;;;;;;;19.65;10.65;;;15.40;38.60;;;;;;5074786;28;20021;-85
2022/03/09 11:16:41;;;;;;;21.40;11.05;;;15.80;37.60;;;;;;5075232;28;20044;-85
2022/03/09 11:19:09;;;;;;;19.88;9.25;;;16.10;37.20;;;;;;5074772;28;20043;-86
2022/03/09 11:21:35;;;;;;;20.52;9.38;;;16.50;36.30;;;;;;5074902;28;20407;-85
2022/03/09 11:27:24;;;;;;;19.95;8.32;;;17.30;34.50;;;;;;5075663;28;20066;-85
2022/03/09 11:29:51;;;;;;;14.00;7.15;;;17.80;33.60;;;;;;5074933;28;20052;-85
2022/03/09 11:32:33;;;;;;;15.38;6.75;;;17.90;32.70;;;;;;5073866;28;20086;-87
2022/03/09 11:34:58;;;;;;;11.18;5.88;;;17.70;32.20;;;;;;5073582;28;20025;-85
2022/03/09 11:37:35;;;;;;;15.68;6.13;;;17.60;32.40;;;;;;5073731;28;20025;-85
2022/03/09 11:40:08;;;;;;;10.60;5.43;;;17.40;32.30;;;;;;5073470;28;20412;-85
2022/03/09 11:42:44;;;;;;;15.40;7.55;;;17.20;31.80;;;;;;5074694;28;20095;-85
2022/03/09 11:45:22;;;;;;;13.15;6.70;;;17.00;32.20;;;;;;5073382;28;20031;-86
2022/03/09 11:48:07;;;;;;;11.00;4.68;;;16.80;32.40;;;;;;5073108;28;20162;-86
2022/03/09 11:50:56;;;;;;;9.70;4.10;;;16.80;31.80;;;;;;5073790;28;20420;-85
2022/03/09 11:53:37;;;;;;;8.77;4.43;;;16.70;31.40;;;;;;5073381;28;20031;-86
2022/03/09 11:56:21;;;;;;;11.35;5.55;;;16.50;31.00;;;;;;5073086;28;20515;-83
2022/03/09 11:59:22;;;;;;;10.65;5.45;;;16.30;31.50;;;;;;5073303;28;20024;-85
2022/03/09 12:02:04;;;;;;;9.98;4.75;;;16.30;31.20;;;;;;5074329;28;20017;-91
2022/03/09 12:04:42;;;;;;;10.30;4.88;;;16.20;30.80;;;;;;5077737;28;20024;-91
2022/03/09 12:07:13;;;;;;;9.13;4.78;;;15.90;31.00;;;;;;5076395;28;20048;-91
2022/03/09 12:10:04;;;;;;;9.50;4.43;;;15.90;31.00;;;;;;5076043;28;20024;-91
2022/03/09 12:12:31;;;;;;;10.68;4.97;;;15.60;31.00;;;;;;5075961;28;20450;-90
2022/03/09 12:15:13;;;;;;;11.70;4.95;;;15.50;31.20;;;;;;5076138;28;20466;-90
2022/03/09 12:17:42;;;;;;;10.20;4.78;;;15.30;31.10;;;;;;5075321;28;20451;-91
2022/03/09 12:20:29;;;;;;;9.73;5.03;;;15.10;31.30;;;;;;5078879;28;20428;-90
2022/03/09 12:23:00;;;;;;;9.90;5.10;;;15.00;31.50;;;;;;5076415;28;20089;-89
2022/03/09 12:25:43;;;;;;;8.50;4.40;;;15.00;31.70;;;;;;5076235;28;20029;-91
2022/03/09 12:28:32;;;;;;;10.07;5.68;;;15.00;31.60;;;;;;5075810;28;20469;-91
2022/03/09 12:31:01;;;;;;;13.52;5.65;;;14.80;31.50;;;;;;5067770;28;20119;-90
2022/03/09 12:33:33;;;;;;;11.15;5.30;;;14.60;31.40;;;;;;5076995;28;20025;-89
2022/03/09 12:36:04;;;;;;;13.18;5.78;;;14.40;31.70;;;;;;5077698;28;20470;-89
2022/03/09 12:38:38;;;;;;;10.50;5.07;;;14.30;31.90;;;;;;5077526;28;20033;-89
2022/03/09 12:41:04;;;;;;;9.90;4.72;;;14.30;31.90;;;;;;5077858;28;20029;-89
2022/03/09 12:43:50;;;;;;;12.90;5.05;;;14.30;31.80;;;;;;5078029;28;20048;-90
2022/03/09 12:46:17;;;;;;;9.48;4.70;;;14.20;31.60;;;;;;5078426;28;20103;-90
2022/03/09 12:48:42;;;;;;;9.23;4.63;;;14.20;31.70;;;;;;5078240;28;20024;-90
2022/03/09 12:51:08;;;;;;;;;;;14.30;31.60;;;;;;5077896;28;20078;-89